High Point, NC

4:44 PM EST on February 28, 2015 (GMT -0500)
Carol Bay | Change Station
CLOSE
Current Station
Personal Weather Station
Location: High Point, NC
Elevation: 853 ft
Nearby Weather Stations
Active Advisory: Winter Weather Advisory

Elev 853 ft 36.02 °N, 79.98 °W | Updated 0 second ago

Mostly Cloudy
Mostly Cloudy
39.0 °F
Feels Like 39 °F
N
2.0
Wind Variable Wind from East
Gusts 10.0 mph

Today
High -- | Low -- °F
--% Chance of Precip.
Yesterday
High -- | Low -- °F
Precip. -- in
6:51 AM 6:13 PM
Waxing Gibbous, 80% visible
Pressure 30.67 in
Visibility 10.0 miles
Clouds Overcast 25000 ft
Windchill 39 °F
Dew Point 18 °F
Humidity 42%
Rainfall 0.02 in
Snow Depth Not available.
UV 1 out of 12
Pollen 3.30 out of 12
Air Quality Not available.
Flu Activity Not available.
METAR KGSO 282054Z 03005KT 10SM OVC250 02/M08 A3064 RMK AO2 SLP385 T00171083 56021 $

More Conditions Fewer Conditions

Pressure 30.67 in
Visibility 10.0 miles
Clouds Overcast 25000 ft
Windchill 39 °F
Dew Point 18 °F
Humidity 42%
Rainfall 0.02 in
Snow Depth Not available.
UV 1 out of 12
Pollen 3.30 out of 12
Air Quality Not available.
Flu Activity Not available.
METAR KGSO 282054Z 03005KT 10SM OVC250 02/M08 A3064 RMK AO2 SLP385 T00171083 56021 $

More Conditions Fewer Conditions

10-Day Weather Forecast

Almanac

Astronomy

Feb. 28, 2015 Rise Set
Actual Time
Civil Twilight
Nautical Twilight
Astronomical Twilight
Moon
Length of Visible Light
Length of Day
Tomorrow will be .
, % of the Moon is Illuminated

Today's Extremes

State Highs State Lows

Community

WunderPhotos

Upload Photos

1,801,160 photos uploaded!

WunderBlogs® & News

Nearby

Air Quality

  Air Quality AQ Index Pollutant
Not available.

Snow Depth

Station Depth Elevation

Earthquake Activity

City Distance Mag. Time & Date
Minimum magnitude displayed is 2.5.

Coastal Water Temperatures

Place Temperature

Nearby Weather Stations

Winter Weather Advisory
Statement as of 3:49 PM EST on February 28, 2015

... Winter Weather Advisory in effect from 4 am to 6 PM EST
Sunday...

The National Weather Service in Raleigh has issued a Winter
Weather Advisory... which is in effect from 4 am to 6 PM EST
Sunday.

* Locations... for the far northwest Piedmont including The Triad
region... Burlington... Lexington... Asheboro... and Roxboro.

* Hazard types... mainly freezing rain.

* Accumulations... ice accumulation up to a tenth of an inch is
expected.

* Timing... very late tonight through Sunday afternoon.

* Impacts... a thin coating of ice on roads and sidewalks will make
travel treacherous through Sunday.

* Winds... north 5 mph or less.

* Temperatures... in the mid 20s to around 30.

Precautionary/preparedness actions...

A Winter Weather Advisory means that periods of freezing rain or
freezing drizzle will cause travel difficulties. Be prepared for
slippery roads... and use extra caution while driving.



Gih